Time;durP1;ratioP1;P1;durP2;ratioP2;P2;SDS_P1;SDS_P2;PMS_P1;PMS_P2;Temp;Humidity;BMP_temperature;BMP_pressure;BME280_temperature;BME280_humidity;BME280_pressure;Samples;Min_cycle;Max_cycle;Signal;HPM_P1;HPM_P2
2021/12/19 00:04:37;;;;;;;0.00;0.00;;;7.00;99.90;;;;;;4996632;28;20100;-64
2021/12/19 00:09:47;;;;;;;0.00;0.00;;;6.90;99.90;;;;;;4999974;28;20050;-64
2021/12/19 00:12:12;;;;;;;0.00;0.00;;;7.00;99.90;;;;;;4999571;28;20100;-65
2021/12/19 00:14:38;;;;;;;0.00;0.00;;;7.00;99.90;;;;;;4997505;28;20509;-64
2021/12/19 00:17:04;;;;;;;0.00;0.00;;;7.10;99.90;;;;;;4998918;28;20532;-65
2021/12/19 00:19:30;;;;;;;0.00;0.00;;;7.00;99.90;;;;;;5000330;28;20121;-64
2021/12/19 00:21:55;;;;;;;0.00;0.00;;;7.00;99.90;;;;;;4999370;28;20049;-64
2021/12/19 00:24:21;;;;;;;0.00;0.00;;;7.20;99.90;;;;;;4999297;28;20054;-64
2021/12/19 00:26:47;;;;;;;0.00;0.00;;;7.70;99.90;;;;;;4998843;28;20048;-64
2021/12/19 00:29:13;;;;;;;0.00;0.00;;;7.00;99.90;;;;;;5007119;28;20079;-64
2021/12/19 00:31:38;;;;;;;0.00;0.00;;;7.00;99.90;;;;;;4999881;28;20045;-64
2021/12/19 00:34:04;;;;;;;0.00;0.00;;;7.00;99.90;;;;;;4997682;28;20125;-64
2021/12/19 00:36:30;;;;;;;0.00;0.00;;;7.00;99.90;;;;;;4998681;28;20711;-64
2021/12/19 00:38:57;;;;;;;0.00;0.00;;;7.00;99.90;;;;;;4998511;28;20088;-64
2021/12/19 00:41:22;;;;;;;0.00;0.00;;;7.00;99.90;;;;;;4998580;28;20329;-64
2021/12/19 00:43:55;;;;;;;0.00;0.00;;;7.00;99.90;;;;;;4998502;28;20057;-65
2021/12/19 00:46:24;;;;;;;0.00;0.00;;;7.00;99.90;;;;;;4998442;28;20119;-64
2021/12/19 00:48:53;;;;;;;0.00;0.00;;;7.00;99.90;;;;;;4996065;28;20084;-64
2021/12/19 00:51:22;;;;;;;0.00;0.00;;;7.00;99.90;;;;;;4999672;28;20045;-64
2021/12/19 00:53:49;;;;;;;0.00;0.00;;;7.00;99.90;;;;;;4999064;28;20037;-64
2021/12/19 00:56:15;;;;;;;0.00;0.00;;;7.10;99.90;;;;;;4999582;28;20050;-65
2021/12/19 00:58:42;;;;;;;0.00;0.00;;;7.20;99.90;;;;;;4996568;28;20050;-65
2021/12/19 01:01:11;;;;;;;0.00;0.00;;;7.10;99.90;;;;;;4999732;28;20129;-64
2021/12/19 01:03:37;;;;;;;0.00;0.00;;;7.10;99.90;;;;;;4997189;28;20054;-64
2021/12/19 01:06:04;;;;;;;0.00;0.00;;;7.10;99.90;;;;;;4998496;28;20041;-65
2021/12/19 01:08:30;;;;;;;0.00;0.00;;;7.10;99.90;;;;;;4999743;28;20049;-64
2021/12/19 01:10:56;;;;;;;0.08;0.08;;;7.60;99.90;;;;;;4997954;28;20053;-64
2021/12/19 01:13:21;;;;;;;0.00;0.00;;;7.20;99.90;;;;;;4998614;28;20114;-64
2021/12/19 01:15:50;;;;;;;0.00;0.00;;;7.20;99.90;;;;;;4997810;28;20516;-64
2021/12/19 01:18:16;;;;;;;0.00;0.00;;;7.20;99.90;;;;;;4997695;28;20413;-64
2021/12/19 01:20:42;;;;;;;0.00;0.00;;;7.20;99.90;;;;;;4999005;28;20046;-65
2021/12/19 01:23:09;;;;;;;0.00;0.00;;;7.20;99.90;;;;;;4998779;28;20056;-64
2021/12/19 01:25:35;;;;;;;0.00;0.00;;;7.20;99.90;;;;;;4998388;28;20046;-65
2021/12/19 01:28:01;;;;;;;0.00;0.00;;;7.30;99.90;;;;;;5001300;28;20183;-64
2021/12/19 01:30:26;;;;;;;0.00;0.00;;;8.10;99.90;;;;;;5007160;28;20129;-64
2021/12/19 01:32:52;;;;;;;0.00;0.00;;;7.20;99.90;;;;;;4997078;28;20518;-64
2021/12/19 01:35:20;;;;;;;0.00;0.00;;;7.10;99.90;;;;;;4998532;28;20516;-64
2021/12/19 01:37:46;;;;;;;0.00;0.00;;;7.20;99.90;;;;;;4998445;28;20450;-64
2021/12/19 01:40:15;;;;;;;0.00;0.00;;;7.20;99.90;;;;;;4997246;28;20049;-64
2021/12/19 01:42:42;;;;;;;0.05;0.05;;;7.20;99.90;;;;;;4997612;28;20113;-65
2021/12/19 01:45:12;;;;;;;0.00;0.00;;;7.10;99.90;;;;;;4998660;28;20044;-64
2021/12/19 01:47:38;;;;;;;0.00;0.00;;;7.10;99.90;;;;;;4997477;28;20038;-64
2021/12/19 01:50:06;;;;;;;0.00;0.00;;;7.00;99.90;;;;;;4997205;28;20088;-65
2021/12/19 01:52:32;;;;;;;0.00;0.00;;;7.00;99.90;;;;;;4997493;28;20099;-65
2021/12/19 01:54:58;;;;;;;0.00;0.00;;;7.20;99.90;;;;;;4997500;28;20062;-64
2021/12/19 01:57:25;;;;;;;0.00;0.00;;;7.00;99.90;;;;;;4998257;28;20136;-64
2021/12/19 01:59:54;;;;;;;0.00;0.00;;;6.90;99.90;;;;;;4995914;28;20103;-64
2021/12/19 02:02:20;;;;;;;0.00;0.00;;;7.20;99.90;;;;;;4996040;28;20401;-64
2021/12/19 02:04:47;;;;;;;0.00;0.00;;;6.90;99.90;;;;;;4996986;28;20045;-64
2021/12/19 02:07:13;;;;;;;0.00;0.00;;;6.80;99.90;;;;;;4995822;28;20088;-64
2021/12/19 02:09:41;;;;;;;0.00;0.00;;;6.70;99.90;;;;;;4997910;28;20085;-64
2021/12/19 02:12:07;;;;;;;0.00;0.00;;;6.70;99.90;;;;;;4996874;28;20112;-64
2021/12/19 02:14:33;;;;;;;0.00;0.00;;;6.70;99.90;;;;;;4998395;28;20072;-65
2021/12/19 02:16:58;;;;;;;0.00;0.00;;;6.60;99.90;;;;;;4996346;28;20058;-64
2021/12/19 02:19:25;;;;;;;0.00;0.00;;;6.60;99.90;;;;;;4996553;28;20582;-64
2021/12/19 02:21:51;;;;;;;0.00;0.00;;;6.50;99.90;;;;;;4997941;28;20123;-65
2021/12/19 02:24:17;;;;;;;0.00;0.00;;;6.50;99.90;;;;;;4996783;28;20062;-64
2021/12/19 02:26:44;;;;;;;0.00;0.00;;;6.50;99.90;;;;;;4997523;28;20870;-65
2021/12/19 02:29:11;;;;;;;0.00;0.00;;;6.50;99.90;;;;;;5006173;28;20045;-64
2021/12/19 02:31:37;;;;;;;0.00;0.00;;;6.50;99.90;;;;;;4999899;28;20054;-65
2021/12/19 02:37:43;;;;;;;0.00;0.00;;;6.50;99.90;;;;;;4998209;28;20752;-65
2021/12/19 02:50:11;;;;;;;0.00;0.00;;;6.50;99.90;;;;;;4996633;28;20111;-64
2021/12/19 02:52:37;;;;;;;0.00;0.00;;;7.40;99.90;;;;;;4995834;28;20137;-64
2021/12/19 02:55:04;;;;;;;0.00;0.00;;;6.40;99.90;;;;;;4997684;28;20125;-65
2021/12/19 02:57:29;;;;;;;0.00;0.00;;;6.40;99.90;;;;;;4997887;28;20034;-64
2021/12/19 02:59:55;;;;;;;0.00;0.00;;;6.40;99.90;;;;;;4995149;28;20129;-64
2021/12/19 03:02:22;;;;;;;0.00;0.00;;;6.40;99.90;;;;;;4996905;28;20038;-64
2021/12/19 03:04:55;;;;;;;0.00;0.00;;;6.40;99.90;;;;;;4995855;28;20080;-64
2021/12/19 03:07:21;;;;;;;0.00;0.00;;;6.40;99.90;;;;;;4995927;28;20536;-64
2021/12/19 03:10:11;;;;;;;0.00;0.00;;;6.40;99.90;;;;;;4995520;28;20489;-64
2021/12/19 03:18:07;;;;;;;0.10;0.10;;;7.40;99.90;;;;;;4996576;28;20069;-64
2021/12/19 03:20:34;;;;;;;0.00;0.00;;;6.50;99.90;;;;;;5001151;28;20046;-66
2021/12/19 03:23:00;;;;;;;0.00;0.00;;;6.70;99.90;;;;;;5001294;28;20440;-64
2021/12/19 03:25:26;;;;;;;0.00;0.00;;;6.50;99.90;;;;;;5001196;28;20042;-64
2021/12/19 03:27:52;;;;;;;0.00;0.00;;;6.50;99.90;;;;;;5017161;28;20129;-64
2021/12/19 03:30:18;;;;;;;0.00;0.00;;;7.20;99.90;;;;;;5007782;28;20436;-64
2021/12/19 03:32:44;;;;;;;0.00;0.00;;;6.50;99.90;;;;;;4999671;28;20072;-65
2021/12/19 03:35:10;;;;;;;0.00;0.00;;;6.40;99.90;;;;;;4999589;28;20041;-64
2021/12/19 03:37:36;;;;;;;0.00;0.00;;;6.40;99.90;;;;;;4998914;28;20539;-65
2021/12/19 03:40:10;;;;;;;0.00;0.00;;;6.70;99.90;;;;;;5000926;28;20046;-64
2021/12/19 03:42:42;;;;;;;0.00;0.00;;;6.40;99.90;;;;;;4999179;28;20045;-65
2021/12/19 03:45:10;;;;;;;0.00;0.00;;;6.50;99.90;;;;;;4998489;28;20045;-64
2021/12/19 03:47:37;;;;;;;0.00;0.00;;;6.40;99.90;;;;;;4999667;28;20053;-64
2021/12/19 03:50:05;;;;;;;0.00;0.00;;;6.90;99.90;;;;;;5000252;28;20034;-65
2021/12/19 03:52:32;;;;;;;0.00;0.00;;;6.50;99.90;;;;;;4999125;28;20144;-64
2021/12/19 03:54:57;;;;;;;0.00;0.00;;;6.50;99.90;;;;;;4998767;28;20057;-64
2021/12/19 03:57:23;;;;;;;0.00;0.00;;;6.40;99.90;;;;;;5000135;28;20057;-64
2021/12/19 03:59:49;;;;;;;0.00;0.00;;;6.50;99.90;;;;;;4998983;28;20058;-65
2021/12/19 04:02:24;;;;;;;0.00;0.00;;;6.50;99.90;;;;;;4998531;28;20041;-64
2021/12/19 04:04:51;;;;;;;0.00;0.00;;;6.50;99.90;;;;;;4998664;28;20069;-65
2021/12/19 04:07:17;;;;;;;0.00;0.00;;;6.50;99.90;;;;;;5000547;28;20089;-65
2021/12/19 04:09:43;;;;;;;0.00;0.00;;;6.60;99.90;;;;;;4998974;28;20545;-65
2021/12/19 04:12:09;;;;;;;0.00;0.00;;;6.60;99.90;;;;;;4998668;28;20060;-64
2021/12/19 04:14:35;;;;;;;0.00;0.00;;;7.10;99.90;;;;;;4998787;28;20103;-65
2021/12/19 04:17:01;;;;;;;0.00;0.00;;;6.60;99.90;;;;;;4999439;28;20517;-64
2021/12/19 04:19:27;;;;;;;0.00;0.00;;;6.60;99.90;;;;;;4997456;28;20081;-65
2021/12/19 04:21:53;;;;;;;0.00;0.00;;;6.60;99.90;;;;;;4999840;28;20532;-65
2021/12/19 04:24:18;;;;;;;0.00;0.00;;;6.60;99.90;;;;;;4982388;28;20560;-65
2021/12/19 04:26:44;;;;;;;0.00;0.00;;;6.60;99.90;;;;;;4999460;28;20555;-65
2021/12/19 04:29:10;;;;;;;0.00;0.00;;;6.60;99.90;;;;;;5006977;28;20099;-64
2021/12/19 04:31:37;;;;;;;0.00;0.00;;;6.60;99.90;;;;;;4999704;28;20056;-64
2021/12/19 04:34:03;;;;;;;0.00;0.00;;;6.60;99.90;;;;;;4998692;28;20046;-66
2021/12/19 04:36:34;;;;;;;0.00;0.00;;;6.60;99.90;;;;;;4999728;28;20113;-64
2021/12/19 04:52:58;;;;;;;0.00;0.00;;;6.70;99.90;;;;;;4999621;28;20687;-64
2021/12/19 04:55:43;;;;;;;0.00;0.00;;;6.70;99.90;;;;;;4997771;28;20057;-65
2021/12/19 05:00:45;;;;;;;0.00;0.00;;;6.70;99.90;;;;;;4999307;28;20045;-65
2021/12/19 05:03:28;;;;;;;0.00;0.00;;;6.70;99.90;;;;;;4997208;28;20095;-64
2021/12/19 05:06:16;;;;;;;0.00;0.00;;;6.70;99.90;;;;;;4998776;28;20053;-64
2021/12/19 05:14:23;;;;;;;0.00;0.00;;;6.80;99.90;;;;;;4997616;28;21125;-64
2021/12/19 05:16:51;;;;;;;0.00;0.00;;;6.80;99.90;;;;;;4997909;28;20089;-65
2021/12/19 05:19:30;;;;;;;0.00;0.00;;;6.80;99.90;;;;;;4998430;28;20733;-64
2021/12/19 05:22:00;;;;;;;0.00;0.00;;;6.80;99.90;;;;;;4997469;28;20046;-63
2021/12/19 05:24:49;;;;;;;0.00;0.00;;;6.90;99.90;;;;;;4998767;28;20132;-64
2021/12/19 05:27:12;;;;;;;0.00;0.00;;;6.80;99.90;;;;;;4996305;28;20053;-65
2021/12/19 05:29:38;;;;;;;0.00;0.00;;;6.80;99.90;;;;;;5008334;28;20119;-65
2021/12/19 05:32:05;;;;;;;0.00;0.00;;;6.80;99.90;;;;;;4997566;28;20432;-65
2021/12/19 05:34:31;;;;;;;0.00;0.00;;;6.80;99.90;;;;;;4999517;28;20101;-64
2021/12/19 05:45:26;;;;;;;0.00;0.00;;;6.80;99.90;;;;;;4998717;28;20077;-64
2021/12/19 05:47:52;;;;;;;0.00;0.00;;;6.80;99.90;;;;;;4997906;28;20765;-64
2021/12/19 05:50:20;;;;;;;0.00;0.00;;;6.80;99.90;;;;;;4996719;28;20570;-65
2021/12/19 05:52:47;;;;;;;0.00;0.00;;;6.80;99.90;;;;;;4997144;28;20046;-64
2021/12/19 05:55:15;;;;;;;0.00;0.00;;;6.80;99.90;;;;;;4995615;28;20062;-64
2021/12/19 05:57:41;;;;;;;0.00;0.00;;;6.80;99.90;;;;;;4980898;28;20034;-65
2021/12/19 06:00:12;;;;;;;0.00;0.00;;;6.80;99.90;;;;;;4997928;28;20050;-64
2021/12/19 06:02:39;;;;;;;0.00;0.00;;;6.80;99.90;;;;;;4995708;28;20060;-65
2021/12/19 06:05:06;;;;;;;0.00;0.00;;;7.90;99.90;;;;;;4997763;28;20406;-65
2021/12/19 06:07:31;;;;;;;0.00;0.00;;;6.80;99.90;;;;;;4998921;28;20046;-64
2021/12/19 06:09:59;;;;;;;0.00;0.00;;;7.30;99.90;;;;;;4997665;28;20041;-65
2021/12/19 06:12:25;;;;;;;0.00;0.00;;;7.00;99.90;;;;;;4996300;28;20140;-64
2021/12/19 06:14:51;;;;;;;0.00;0.00;;;6.80;99.90;;;;;;4996722;28;20125;-65
2021/12/19 06:17:16;;;;;;;0.00;0.00;;;6.80;99.90;;;;;;4997386;28;20053;-64
2021/12/19 06:19:42;;;;;;;0.00;0.00;;;6.80;99.90;;;;;;4996248;28;20057;-65
2021/12/19 06:22:08;;;;;;;0.00;0.00;;;7.00;99.90;;;;;;4997785;28;20382;-64
2021/12/19 06:24:35;;;;;;;0.00;0.00;;;6.80;99.90;;;;;;5013157;28;20073;-65
2021/12/19 06:27:02;;;;;;;0.00;0.00;;;6.80;99.90;;;;;;4998244;28;20484;-64
2021/12/19 06:29:29;;;;;;;0.00;0.00;;;6.80;99.90;;;;;;5007919;28;20060;-64
2021/12/19 06:31:56;;;;;;;0.00;0.00;;;6.80;99.90;;;;;;4995907;28;20077;-64
2021/12/19 06:34:22;;;;;;;0.00;0.00;;;6.80;99.90;;;;;;4996984;28;20428;-64
2021/12/19 06:36:48;;;;;;;0.00;0.00;;;6.80;99.90;;;;;;4996633;28;20053;-64
2021/12/19 06:39:13;;;;;;;0.00;0.00;;;6.70;99.90;;;;;;4997016;28;20444;-65
2021/12/19 06:41:39;;;;;;;0.00;0.00;;;6.70;99.90;;;;;;4996436;28;20452;-65
2021/12/19 06:44:05;;;;;;;0.00;0.00;;;6.70;99.90;;;;;;4996677;28;20054;-65
2021/12/19 06:46:31;;;;;;;0.00;0.00;;;6.70;99.90;;;;;;4997258;28;20107;-64
2021/12/19 06:48:57;;;;;;;0.00;0.00;;;6.70;99.90;;;;;;4997079;28;20516;-64
2021/12/19 06:51:23;;;;;;;0.00;0.00;;;7.00;99.90;;;;;;4997565;28;20042;-64
2021/12/19 06:53:49;;;;;;;0.00;0.00;;;6.60;99.90;;;;;;5001145;28;20104;-65
2021/12/19 06:56:16;;;;;;;0.00;0.00;;;6.60;99.90;;;;;;4999770;28;20500;-65
2021/12/19 06:58:42;;;;;;;0.00;0.00;;;6.60;99.90;;;;;;4999915;28;20088;-65
2021/12/19 07:01:08;;;;;;;0.00;0.00;;;6.70;99.90;;;;;;5000527;28;20054;-64
2021/12/19 07:03:34;;;;;;;0.00;0.00;;;6.60;99.90;;;;;;5001500;28;20042;-64
2021/12/19 07:06:00;;;;;;;0.00;0.00;;;6.60;99.90;;;;;;5000852;28;20070;-64
2021/12/19 07:08:26;;;;;;;0.00;0.00;;;6.60;99.90;;;;;;5001103;28;20038;-64
2021/12/19 07:10:52;;;;;;;0.00;0.00;;;6.60;99.90;;;;;;5000352;28;20169;-65
2021/12/19 07:13:20;;;;;;;0.00;0.00;;;7.30;99.90;;;;;;4999659;28;20045;-64
2021/12/19 07:15:51;;;;;;;0.00;0.00;;;6.60;99.90;;;;;;5000160;28;20054;-64
2021/12/19 07:18:17;;;;;;;0.00;0.00;;;6.60;99.90;;;;;;4999504;28;20057;-64
2021/12/19 07:20:43;;;;;;;0.00;0.00;;;6.60;99.90;;;;;;5000858;28;20042;-64
2021/12/19 07:23:19;;;;;;;0.00;0.00;;;6.60;99.90;;;;;;5000726;28;20041;-64
2021/12/19 07:25:45;;;;;;;0.00;0.00;;;6.60;99.90;;;;;;4999362;28;20060;-67
2021/12/19 07:28:12;;;;;;;0.00;0.00;;;6.60;99.90;;;;;;5002083;28;20033;-66
2021/12/19 07:30:39;;;;;;;0.00;0.00;;;6.60;99.90;;;;;;5009399;28;20052;-67
2021/12/19 07:33:07;;;;;;;0.00;0.00;;;6.60;99.90;;;;;;4999650;28;20413;-67
2021/12/19 07:35:37;;;;;;;0.00;0.00;;;7.30;99.90;;;;;;5000799;28;20046;-67
2021/12/19 07:38:04;;;;;;;0.00;0.00;;;6.60;99.90;;;;;;5000412;28;20129;-67
2021/12/19 07:40:36;;;;;;;0.00;0.00;;;6.60;99.90;;;;;;5015466;28;20080;-66
2021/12/19 07:43:03;;;;;;;0.00;0.00;;;6.60;99.90;;;;;;4999489;28;20042;-66
2021/12/19 07:45:30;;;;;;;0.00;0.00;;;6.60;99.90;;;;;;5001123;28;20469;-65
2021/12/19 07:47:56;;;;;;;0.00;0.00;;;6.60;99.90;;;;;;4997449;28;20092;-65
2021/12/19 07:50:22;;;;;;;0.00;0.00;;;6.60;99.90;;;;;;4999413;28;20090;-65
2021/12/19 07:52:48;;;;;;;0.00;0.00;;;7.80;99.90;;;;;;4999133;28;20730;-65
2021/12/19 07:55:14;;;;;;;0.00;0.00;;;6.60;99.90;;;;;;4999540;28;20103;-65
2021/12/19 07:57:40;;;;;;;0.00;0.00;;;6.60;99.90;;;;;;4998011;28;20042;-64
2021/12/19 08:00:08;;;;;;;0.00;0.00;;;6.60;99.90;;;;;;4999251;28;20061;-65
2021/12/19 08:02:34;;;;;;;0.00;0.00;;;6.60;99.90;;;;;;4997359;28;20042;-65
2021/12/19 08:05:00;;;;;;;0.00;0.00;;;6.60;99.90;;;;;;4999652;28;20412;-64
2021/12/19 08:07:26;;;;;;;0.00;0.00;;;6.70;99.90;;;;;;4997752;28;20061;-64
2021/12/19 08:10:13;;;;;;;0.00;0.00;;;6.60;99.90;;;;;;4998843;28;20034;-67
2021/12/19 08:12:40;;;;;;;0.00;0.00;;;6.60;99.90;;;;;;4999166;28;20066;-67
2021/12/19 08:15:07;;;;;;;0.00;0.00;;;6.60;99.90;;;;;;5000009;28;20054;-65
2021/12/19 08:17:33;;;;;;;0.00;0.00;;;6.70;99.90;;;;;;4981521;28;20682;-67
2021/12/19 08:20:00;;;;;;;0.00;0.00;;;6.70;99.90;;;;;;4998844;28;20045;-65
2021/12/19 08:22:28;;;;;;;0.00;0.00;;;7.90;99.90;;;;;;4997283;28;20077;-65
2021/12/19 08:24:53;;;;;;;0.00;0.00;;;6.70;99.90;;;;;;4998706;28;20050;-65
2021/12/19 08:27:19;;;;;;;0.00;0.00;;;7.10;99.90;;;;;;5014756;28;20069;-65
2021/12/19 08:29:46;;;;;;;0.00;0.00;;;6.70;99.90;;;;;;5008777;28;20049;-67
2021/12/19 08:32:12;;;;;;;0.00;0.00;;;7.20;99.90;;;;;;4998854;28;20053;-65
2021/12/19 08:34:38;;;;;;;0.00;0.00;;;6.70;99.90;;;;;;4999813;28;20044;-65
2021/12/19 08:37:04;;;;;;;0.00;0.00;;;6.70;99.90;;;;;;4999622;28;20135;-66
2021/12/19 08:39:31;;;;;;;0.00;0.00;;;6.70;99.90;;;;;;4997596;28;20120;-65
2021/12/19 08:41:57;;;;;;;0.00;0.00;;;6.70;99.90;;;;;;4998768;28;20432;-65
2021/12/19 08:44:23;;;;;;;0.00;0.00;;;6.90;99.90;;;;;;4997766;28;20057;-65
2021/12/19 08:46:48;;;;;;;0.00;0.00;;;6.70;99.90;;;;;;4998774;28;20129;-65
2021/12/19 08:49:14;;;;;;;0.00;0.00;;;6.70;99.90;;;;;;4996878;28;20053;-66
2021/12/19 08:51:40;;;;;;;0.00;0.00;;;7.00;99.90;;;;;;4981945;28;20139;-67
2021/12/19 08:54:07;;;;;;;0.00;0.00;;;6.70;99.90;;;;;;4998241;28;20449;-67
2021/12/19 08:56:33;;;;;;;0.00;0.00;;;6.90;99.90;;;;;;4999348;28;20120;-67
2021/12/19 08:59:00;;;;;;;0.00;0.00;;;6.90;99.90;;;;;;4998339;28;20038;-66
2021/12/19 09:01:26;;;;;;;0.00;0.00;;;6.80;99.90;;;;;;4998263;28;20046;-65
2021/12/19 09:03:52;;;;;;;0.00;0.00;;;6.80;99.90;;;;;;4998917;28;20060;-66
2021/12/19 09:06:18;;;;;;;0.00;0.00;;;6.80;99.90;;;;;;4998117;28;20125;-65
2021/12/19 09:08:43;;;;;;;0.00;0.00;;;6.80;99.90;;;;;;4999260;28;20050;-66
2021/12/19 09:11:09;;;;;;;0.00;0.00;;;8.00;99.90;;;;;;4998970;28;20128;-65
2021/12/19 09:13:35;;;;;;;0.00;0.00;;;6.80;99.90;;;;;;4997832;28;20060;-66
2021/12/19 09:16:01;;;;;;;0.00;0.00;;;7.40;99.90;;;;;;4996718;28;20080;-65
2021/12/19 09:18:31;;;;;;;0.00;0.00;;;7.70;99.90;;;;;;4998950;28;20058;-65
2021/12/19 09:20:57;;;;;;;0.00;0.00;;;6.80;99.90;;;;;;4996959;28;20132;-65
2021/12/19 09:23:23;;;;;;;0.00;0.00;;;6.90;99.90;;;;;;4997626;28;20141;-65
2021/12/19 09:25:49;;;;;;;0.00;0.00;;;8.10;99.90;;;;;;4996101;28;20042;-65
2021/12/19 09:28:17;;;;;;;0.00;0.00;;;6.90;99.90;;;;;;5000963;28;20041;-66
2021/12/19 09:30:44;;;;;;;0.00;0.00;;;6.90;99.90;;;;;;5004328;28;20038;-66
2021/12/19 09:33:10;;;;;;;0.00;0.00;;;6.90;99.90;;;;;;4996474;28;20050;-65
2021/12/19 09:35:36;;;;;;;0.00;0.00;;;6.90;99.90;;;;;;4997100;28;20053;-67
2021/12/19 09:38:04;;;;;;;0.00;0.00;;;6.90;99.90;;;;;;4998706;28;20602;-65
2021/12/19 09:40:35;;;;;;;0.00;0.00;;;7.30;99.90;;;;;;4998662;28;20543;-64
2021/12/19 09:43:05;;;;;;;0.00;0.00;;;6.90;99.90;;;;;;4996984;28;20049;-64
2021/12/19 09:45:32;;;;;;;0.00;0.00;;;6.90;99.90;;;;;;4998118;28;20440;-64
2021/12/19 09:47:59;;;;;;;0.00;0.00;;;7.00;99.90;;;;;;4997207;28;20473;-65
2021/12/19 09:50:25;;;;;;;0.00;0.00;;;7.00;99.90;;;;;;4997163;28;20125;-65
2021/12/19 09:52:50;;;;;;;0.00;0.00;;;7.00;99.90;;;;;;4996924;28;20056;-64
2021/12/19 09:55:21;;;;;;;0.00;0.00;;;7.20;99.90;;;;;;4998017;28;20057;-64
2021/12/19 09:57:48;;;;;;;0.00;0.00;;;7.10;99.90;;;;;;4997935;28;20089;-63
2021/12/19 10:00:14;;;;;;;0.00;0.00;;;7.10;99.90;;;;;;4995943;28;20396;-65
2021/12/19 10:02:40;;;;;;;0.00;0.00;;;7.10;99.90;;;;;;4995962;28;20105;-67
2021/12/19 10:05:24;;;;;;;0.00;0.00;;;7.10;99.90;;;;;;4998034;28;20081;-65
2021/12/19 10:08:03;;;;;;;0.00;0.00;;;7.00;99.90;;;;;;4997086;28;20100;-66
2021/12/19 10:10:43;;;;;;;0.00;0.00;;;7.00;99.90;;;;;;4997494;28;20100;-65
2021/12/19 10:13:09;;;;;;;0.00;0.00;;;7.00;99.90;;;;;;4996254;28;20476;-65
2021/12/19 10:15:41;;;;;;;0.00;0.00;;;7.10;99.90;;;;;;4997072;28;20061;-65
2021/12/19 10:18:10;;;;;;;0.00;0.00;;;7.10;99.90;;;;;;4996379;28;20125;-65
2021/12/19 10:20:50;;;;;;;0.00;0.00;;;7.50;99.90;;;;;;4997298;28;20120;-64
2021/12/19 10:23:28;;;;;;;0.00;0.00;;;7.80;99.90;;;;;;4997927;28;20045;-64
2021/12/19 10:26:11;;;;;;;0.00;0.00;;;7.10;99.90;;;;;;4996929;28;20049;-64
2021/12/19 10:28:55;;;;;;;0.00;0.00;;;7.20;99.90;;;;;;5003606;28;20041;-64
2021/12/19 10:31:22;;;;;;;0.00;0.00;;;7.20;99.90;;;;;;4982536;28;20069;-64
2021/12/19 10:33:48;;;;;;;0.00;0.00;;;7.20;99.90;;;;;;5001390;28;20052;-64
2021/12/19 10:36:16;;;;;;;0.00;0.00;;;7.20;99.90;;;;;;5001929;28;20058;-64
2021/12/19 10:38:45;;;;;;;0.00;0.00;;;7.40;99.90;;;;;;4983495;28;20041;-64
2021/12/19 10:41:16;;;;;;;0.00;0.00;;;7.20;99.90;;;;;;5002111;28;20041;-66
2021/12/19 10:43:57;;;;;;;0.00;0.00;;;7.20;99.90;;;;;;5000151;28;20057;-66
2021/12/19 10:46:33;;;;;;;0.00;0.00;;;7.20;99.90;;;;;;4998917;28;20054;-65
2021/12/19 10:49:00;;;;;;;0.00;0.00;;;7.30;99.90;;;;;;5002021;28;20045;-65
2021/12/19 10:51:26;;;;;;;0.00;0.00;;;7.20;99.90;;;;;;5000169;28;20733;-65
2021/12/19 10:53:55;;;;;;;0.00;0.00;;;7.30;99.90;;;;;;5000572;28;20042;-66
2021/12/19 10:56:22;;;;;;;0.00;0.00;;;7.40;99.90;;;;;;5001081;28;20038;-64
2021/12/19 10:58:52;;;;;;;0.00;0.00;;;6.90;99.90;;;;;;5001327;28;20511;-70
2021/12/19 11:01:35;;;;;;;0.00;0.00;;;7.50;99.90;;;;;;4998744;28;20053;-71
2021/12/19 11:04:07;;;;;;;0.00;0.00;;;7.50;99.90;;;;;;4984056;28;20054;-71
2021/12/19 11:06:47;;;;;;;0.00;0.00;;;7.60;99.90;;;;;;5001360;28;20111;-64
2021/12/19 11:09:19;;;;;;;0.00;0.00;;;7.60;99.90;;;;;;5000045;28;20661;-68
2021/12/19 11:11:56;;;;;;;0.00;0.00;;;7.60;99.90;;;;;;5000987;28;20056;-64
2021/12/19 11:14:28;;;;;;;0.00;0.00;;;7.60;99.90;;;;;;4998770;28;20764;-65
2021/12/19 11:17:15;;;;;;;0.00;0.00;;;7.60;99.90;;;;;;4998787;28;20054;-70
2021/12/19 11:19:43;;;;;;;0.00;0.00;;;7.60;99.90;;;;;;4998381;28;20054;-65
2021/12/19 11:22:11;;;;;;;0.00;0.00;;;7.60;99.90;;;;;;4999742;28;20789;-61
2021/12/19 11:24:36;;;;;;;0.00;0.00;;;8.10;99.90;;;;;;5001396;28;20125;-63
2021/12/19 11:27:05;;;;;;;0.00;0.00;;;8.70;99.90;;;;;;4999709;28;20471;-63
2021/12/19 11:29:31;;;;;;;0.00;0.00;;;7.70;99.90;;;;;;5012382;28;20053;-64
2021/12/19 11:32:00;;;;;;;0.00;0.00;;;7.60;99.90;;;;;;4999494;28;20052;-64
2021/12/19 11:34:44;;;;;;;0.00;0.00;;;7.60;99.90;;;;;;5001164;28;20049;-65
2021/12/19 11:37:13;;;;;;;0.00;0.00;;;7.60;99.90;;;;;;4999484;28;20680;-65
2021/12/19 11:39:49;;;;;;;0.00;0.00;;;8.90;99.90;;;;;;4999975;28;20085;-65
2021/12/19 11:42:27;;;;;;;0.00;0.00;;;7.60;99.90;;;;;;4998720;28;20500;-65
2021/12/19 11:47:47;;;;;;;0.00;0.00;;;8.30;99.90;;;;;;5014539;28;20052;-65
2021/12/19 11:50:21;;;;;;;0.00;0.00;;;7.60;99.90;;;;;;5019854;28;20050;-65
2021/12/19 11:52:53;;;;;;;0.00;0.00;;;7.60;99.90;;;;;;5032479;28;20061;-65
2021/12/19 11:55:29;;;;;;;0.73;0.73;;;7.60;99.90;;;;;;5031156;28;20041;-64
2021/12/19 11:58:12;;;;;;;0.00;0.00;;;7.60;99.90;;;;;;5018340;28;20513;-64
2021/12/19 12:00:40;;;;;;;0.00;0.00;;;7.60;99.90;;;;;;5016617;28;20455;-64
2021/12/19 12:03:11;;;;;;;0.00;0.00;;;7.70;99.90;;;;;;5018254;28;20458;-65
2021/12/19 12:05:40;;;;;;;0.00;0.00;;;7.70;99.90;;;;;;5037780;28;20451;-65
2021/12/19 12:08:07;;;;;;;0.00;0.00;;;7.70;99.90;;;;;;5037645;28;20057;-66
2021/12/19 12:10:51;;;;;;;0.00;0.00;;;7.70;99.90;;;;;;5039795;28;20454;-66
2021/12/19 12:13:22;;;;;;;0.00;0.00;;;7.90;99.90;;;;;;5038265;28;20132;-64
2021/12/19 12:15:51;;;;;;;0.00;0.00;;;8.60;99.90;;;;;;5038223;28;20072;-65
2021/12/19 12:18:31;;;;;;;0.00;0.00;;;8.90;99.90;;;;;;5021730;28;20431;-65
2021/12/19 12:20:57;;;;;;;0.00;0.00;;;7.70;99.90;;;;;;5037394;28;20680;-65
2021/12/19 12:23:26;;;;;;;0.00;0.00;;;7.70;99.90;;;;;;5039263;28;20401;-65
2021/12/19 12:25:52;;;;;;;0.00;0.00;;;7.70;99.90;;;;;;5039121;28;20137;-64
2021/12/19 12:28:19;;;;;;;0.00;0.00;;;8.70;99.90;;;;;;5025831;28;20050;-65
2021/12/19 12:30:52;;;;;;;0.00;0.00;;;7.80;99.90;;;;;;5006532;28;20072;-65
2021/12/19 12:33:20;;;;;;;0.00;0.00;;;7.70;99.90;;;;;;4999942;28;20053;-61
2021/12/19 12:35:48;;;;;;;0.00;0.00;;;8.40;99.90;;;;;;4999763;28;20048;-69
2021/12/19 12:38:15;;;;;;;0.00;0.00;;;8.60;99.90;;;;;;4997204;28;20046;-68
2021/12/19 12:43:34;;;;;;;0.00;0.00;;;8.50;99.90;;;;;;4998963;28;20057;-68
2021/12/19 12:46:07;;;;;;;0.00;0.00;;;8.00;99.90;;;;;;4997900;28;20146;-68
2021/12/19 12:48:33;;;;;;;0.00;0.00;;;7.90;99.90;;;;;;4999507;28;20058;-67
2021/12/19 12:51:00;;;;;;;0.00;0.00;;;7.80;99.90;;;;;;5013509;28;20042;-68
2021/12/19 12:53:35;;;;;;;0.00;0.00;;;8.10;99.90;;;;;;4999200;28;20052;-67
2021/12/19 12:56:11;;;;;;;0.00;0.00;;;7.70;99.90;;;;;;4998047;28;20140;-67
2021/12/19 12:58:44;;;;;;;0.00;0.00;;;7.70;99.90;;;;;;4998097;28;20053;-68
2021/12/19 13:01:25;;;;;;;0.00;0.00;;;7.60;99.90;;;;;;4998457;28;20121;-67
2021/12/19 13:04:10;;;;;;;0.00;0.00;;;7.60;99.90;;;;;;4997033;28;20068;-67
2021/12/19 13:06:42;;;;;;;0.00;0.00;;;7.60;99.90;;;;;;4997713;28;20054;-67
2021/12/19 13:09:13;;;;;;;0.32;0.30;;;7.60;99.90;;;;;;4997669;28;20092;-68
2021/12/19 13:11:40;;;;;;;0.00;0.00;;;7.60;99.90;;;;;;4998478;28;20292;-67
2021/12/19 13:14:30;;;;;;;0.00;0.00;;;7.70;99.90;;;;;;4998045;28;20460;-68
2021/12/19 13:17:17;;;;;;;0.00;0.00;;;7.60;99.90;;;;;;4995337;28;20456;-68
2021/12/19 13:20:08;;;;;;;0.00;0.00;;;7.60;99.90;;;;;;4998232;28;20447;-67
2021/12/19 13:22:43;;;;;;;0.00;0.00;;;7.70;99.90;;;;;;4997398;28;20097;-67
2021/12/19 13:25:22;;;;;;;0.00;0.00;;;7.70;99.90;;;;;;4999165;28;20060;-68
2021/12/19 13:27:53;;;;;;;0.00;0.00;;;7.70;99.90;;;;;;4998865;28;20041;-67
2021/12/19 13:30:21;;;;;;;0.00;0.00;;;7.70;99.90;;;;;;5005418;28;20050;-68
2021/12/19 13:33:01;;;;;;;0.00;0.00;;;8.90;99.90;;;;;;4998091;28;20054;-68
2021/12/19 13:35:37;;;;;;;0.00;0.00;;;7.70;99.90;;;;;;4998335;28;20499;-67
2021/12/19 13:38:08;;;;;;;0.00;0.00;;;7.70;99.90;;;;;;4996824;28;20119;-68
2021/12/19 13:40:43;;;;;;;0.00;0.00;;;7.70;99.90;;;;;;4996165;28;20073;-67
2021/12/19 13:43:24;;;;;;;0.00;0.00;;;7.90;99.90;;;;;;4998224;28;20054;-68
2021/12/19 13:45:57;;;;;;;0.00;0.00;;;7.70;99.90;;;;;;4994917;28;20494;-67
2021/12/19 13:48:35;;;;;;;0.00;0.00;;;7.70;99.90;;;;;;4997910;28;20054;-67
2021/12/19 13:51:16;;;;;;;0.00;0.00;;;7.90;99.90;;;;;;4998107;28;20095;-67
2021/12/19 13:53:48;;;;;;;0.00;0.00;;;7.80;99.90;;;;;;4996699;28;20408;-67
2021/12/19 13:56:20;;;;;;;0.00;0.00;;;7.80;99.90;;;;;;4996644;28;20392;-68
2021/12/19 13:58:53;;;;;;;0.00;0.00;;;7.70;99.90;;;;;;4995837;28;20049;-67
2021/12/19 14:01:22;;;;;;;0.00;0.00;;;8.10;99.90;;;;;;4996011;28;20100;-67
2021/12/19 14:03:54;;;;;;;0.00;0.00;;;8.00;99.90;;;;;;4996130;28;20523;-67
2021/12/19 14:06:35;;;;;;;0.00;0.00;;;7.70;99.90;;;;;;4996785;28;20444;-68
2021/12/19 14:09:04;;;;;;;0.00;0.00;;;7.80;99.90;;;;;;4996535;28;20155;-68